sensor_id;sensor_type;location;lat;lon;timestamp;P1;durP1;ratioP1;P2;durP2;ratioP2
22186;SDS011;11259;52.146;12.844;2023-05-14T00:01:13;1.83;;;1.73;;
22186;SDS011;11259;52.146;12.844;2023-05-14T00:03:38;3.25;;;2.38;;
22186;SDS011;11259;52.146;12.844;2023-05-14T00:06:03;2.33;;;1.98;;
22186;SDS011;11259;52.146;12.844;2023-05-14T00:08:29;3.45;;;2.55;;
22186;SDS011;11259;52.146;12.844;2023-05-14T00:10:54;4.05;;;2.78;;
22186;SDS011;11259;52.146;12.844;2023-05-14T00:13:19;3.28;;;2.08;;
22186;SDS011;11259;52.146;12.844;2023-05-14T00:15:45;2.83;;;2.42;;
22186;SDS011;11259;52.146;12.844;2023-05-14T00:18:12;2.30;;;2.10;;
22186;SDS011;11259;52.146;12.844;2023-05-14T00:20:37;3.83;;;2.40;;
22186;SDS011;11259;52.146;12.844;2023-05-14T00:23:02;1.67;;;1.58;;
22186;SDS011;11259;52.146;12.844;2023-05-14T00:25:28;2.58;;;1.85;;
22186;SDS011;11259;52.146;12.844;2023-05-14T00:27:53;3.15;;;2.13;;
22186;SDS011;11259;52.146;12.844;2023-05-14T00:30:19;2.95;;;2.22;;
22186;SDS011;11259;52.146;12.844;2023-05-14T00:32:44;3.45;;;2.45;;
22186;SDS011;11259;52.146;12.844;2023-05-14T00:35:11;3.05;;;2.38;;
22186;SDS011;11259;52.146;12.844;2023-05-14T00:37:36;3.88;;;1.98;;
22186;SDS011;11259;52.146;12.844;2023-05-14T00:40:02;4.38;;;2.38;;
22186;SDS011;11259;52.146;12.844;2023-05-14T00:42:27;2.67;;;1.98;;
22186;SDS011;11259;52.146;12.844;2023-05-14T00:44:53;2.97;;;2.53;;
22186;SDS011;11259;52.146;12.844;2023-05-14T00:47:18;3.13;;;2.20;;
22186;SDS011;11259;52.146;12.844;2023-05-14T00:49:44;3.65;;;2.63;;
22186;SDS011;11259;52.146;12.844;2023-05-14T00:52:10;3.78;;;2.42;;
22186;SDS011;11259;52.146;12.844;2023-05-14T00:54:37;2.75;;;2.38;;
22186;SDS011;11259;52.146;12.844;2023-05-14T00:57:03;3.85;;;2.50;;
22186;SDS011;11259;52.146;12.844;2023-05-14T00:59:28;2.65;;;2.35;;
22186;SDS011;11259;52.146;12.844;2023-05-14T01:01:54;2.20;;;1.90;;
22186;SDS011;11259;52.146;12.844;2023-05-14T01:04:19;1.95;;;1.67;;
22186;SDS011;11259;52.146;12.844;2023-05-14T01:06:47;2.35;;;2.15;;
22186;SDS011;11259;52.146;12.844;2023-05-14T01:09:21;2.63;;;1.98;;
22186;SDS011;11259;52.146;12.844;2023-05-14T01:11:51;2.60;;;1.90;;
22186;SDS011;11259;52.146;12.844;2023-05-14T01:14:21;1.88;;;1.52;;
22186;SDS011;11259;52.146;12.844;2023-05-14T01:16:49;3.35;;;2.00;;
22186;SDS011;11259;52.146;12.844;2023-05-14T01:19:20;2.83;;;2.00;;
22186;SDS011;11259;52.146;12.844;2023-05-14T01:21:47;3.20;;;2.65;;
22186;SDS011;11259;52.146;12.844;2023-05-14T01:24:13;2.45;;;1.83;;
22186;SDS011;11259;52.146;12.844;2023-05-14T01:26:38;2.85;;;2.50;;
22186;SDS011;11259;52.146;12.844;2023-05-14T01:29:07;2.67;;;2.28;;
22186;SDS011;11259;52.146;12.844;2023-05-14T01:31:35;3.03;;;2.35;;
22186;SDS011;11259;52.146;12.844;2023-05-14T01:34:03;4.60;;;3.17;;
22186;SDS011;11259;52.146;12.844;2023-05-14T01:36:29;3.33;;;2.47;;
22186;SDS011;11259;52.146;12.844;2023-05-14T01:38:56;2.00;;;1.80;;
22186;SDS011;11259;52.146;12.844;2023-05-14T01:41:22;3.17;;;2.85;;
22186;SDS011;11259;52.146;12.844;2023-05-14T01:43:49;3.00;;;2.30;;
22186;SDS011;11259;52.146;12.844;2023-05-14T01:46:16;3.03;;;2.55;;
22186;SDS011;11259;52.146;12.844;2023-05-14T01:48:42;2.95;;;2.33;;
22186;SDS011;11259;52.146;12.844;2023-05-14T01:51:07;2.58;;;2.08;;
22186;SDS011;11259;52.146;12.844;2023-05-14T01:53:32;3.45;;;2.60;;
22186;SDS011;11259;52.146;12.844;2023-05-14T01:55:59;2.78;;;2.20;;
22186;SDS011;11259;52.146;12.844;2023-05-14T01:58:24;3.42;;;2.58;;
22186;SDS011;11259;52.146;12.844;2023-05-14T02:00:50;2.90;;;2.30;;
22186;SDS011;11259;52.146;12.844;2023-05-14T02:03:15;3.03;;;2.30;;
22186;SDS011;11259;52.146;12.844;2023-05-14T02:05:40;2.75;;;1.92;;
22186;SDS011;11259;52.146;12.844;2023-05-14T02:08:07;3.55;;;2.65;;
22186;SDS011;11259;52.146;12.844;2023-05-14T02:10:32;4.45;;;2.35;;
22186;SDS011;11259;52.146;12.844;2023-05-14T02:12:59;3.20;;;2.63;;
22186;SDS011;11259;52.146;12.844;2023-05-14T02:15:24;3.38;;;2.53;;
22186;SDS011;11259;52.146;12.844;2023-05-14T02:17:49;4.07;;;2.90;;
22186;SDS011;11259;52.146;12.844;2023-05-14T02:20:15;3.90;;;3.20;;
22186;SDS011;11259;52.146;12.844;2023-05-14T02:22:40;2.78;;;2.17;;
22186;SDS011;11259;52.146;12.844;2023-05-14T02:25:06;3.47;;;2.60;;
22186;SDS011;11259;52.146;12.844;2023-05-14T02:27:32;3.45;;;2.42;;
22186;SDS011;11259;52.146;12.844;2023-05-14T02:29:59;4.57;;;3.50;;
22186;SDS011;11259;52.146;12.844;2023-05-14T02:32:25;3.40;;;2.70;;
22186;SDS011;11259;52.146;12.844;2023-05-14T02:34:50;3.30;;;3.00;;
22186;SDS011;11259;52.146;12.844;2023-05-14T02:37:16;6.90;;;3.08;;
22186;SDS011;11259;52.146;12.844;2023-05-14T02:39:41;3.67;;;2.70;;
22186;SDS011;11259;52.146;12.844;2023-05-14T02:42:06;2.70;;;2.47;;
22186;SDS011;11259;52.146;12.844;2023-05-14T02:44:32;4.47;;;2.58;;
22186;SDS011;11259;52.146;12.844;2023-05-14T02:46:58;2.92;;;2.40;;
22186;SDS011;11259;52.146;12.844;2023-05-14T02:49:24;3.55;;;2.40;;
22186;SDS011;11259;52.146;12.844;2023-05-14T02:51:49;6.38;;;3.17;;
22186;SDS011;11259;52.146;12.844;2023-05-14T02:54:14;3.60;;;3.03;;
22186;SDS011;11259;52.146;12.844;2023-05-14T02:56:40;3.20;;;2.50;;
22186;SDS011;11259;52.146;12.844;2023-05-14T02:59:05;3.95;;;2.35;;
22186;SDS011;11259;52.146;12.844;2023-05-14T03:01:30;3.95;;;2.72;;
22186;SDS011;11259;52.146;12.844;2023-05-14T03:03:57;2.38;;;2.13;;
22186;SDS011;11259;52.146;12.844;2023-05-14T03:06:23;11.35;;;3.38;;
22186;SDS011;11259;52.146;12.844;2023-05-14T03:08:48;3.80;;;2.70;;
22186;SDS011;11259;52.146;12.844;2023-05-14T03:11:13;3.85;;;2.72;;
22186;SDS011;11259;52.146;12.844;2023-05-14T03:13:38;2.65;;;2.33;;
22186;SDS011;11259;52.146;12.844;2023-05-14T03:16:04;3.50;;;2.50;;
22186;SDS011;11259;52.146;12.844;2023-05-14T03:18:29;2.25;;;2.05;;
22186;SDS011;11259;52.146;12.844;2023-05-14T03:20:56;3.00;;;2.67;;
22186;SDS011;11259;52.146;12.844;2023-05-14T03:23:22;2.90;;;2.60;;
22186;SDS011;11259;52.146;12.844;2023-05-14T03:25:47;2.38;;;1.85;;
22186;SDS011;11259;52.146;12.844;2023-05-14T03:28:12;2.97;;;2.67;;
22186;SDS011;11259;52.146;12.844;2023-05-14T03:30:37;4.80;;;2.92;;
22186;SDS011;11259;52.146;12.844;2023-05-14T03:33:03;4.25;;;2.95;;
22186;SDS011;11259;52.146;12.844;2023-05-14T03:35:28;3.15;;;2.53;;
22186;SDS011;11259;52.146;12.844;2023-05-14T03:37:55;3.80;;;2.42;;
22186;SDS011;11259;52.146;12.844;2023-05-14T03:40:20;4.13;;;2.88;;
22186;SDS011;11259;52.146;12.844;2023-05-14T03:42:45;3.35;;;2.33;;
22186;SDS011;11259;52.146;12.844;2023-05-14T03:45:11;3.03;;;2.28;;
22186;SDS011;11259;52.146;12.844;2023-05-14T03:47:36;3.20;;;2.72;;
22186;SDS011;11259;52.146;12.844;2023-05-14T03:50:01;3.17;;;2.33;;
22186;SDS011;11259;52.146;12.844;2023-05-14T03:52:27;3.40;;;2.45;;
22186;SDS011;11259;52.146;12.844;2023-05-14T03:54:54;3.75;;;2.60;;
22186;SDS011;11259;52.146;12.844;2023-05-14T03:57:19;3.72;;;2.22;;
22186;SDS011;11259;52.146;12.844;2023-05-14T03:59:44;4.20;;;2.67;;
22186;SDS011;11259;52.146;12.844;2023-05-14T04:02:10;3.70;;;2.90;;
22186;SDS011;11259;52.146;12.844;2023-05-14T04:04:35;4.55;;;2.40;;
22186;SDS011;11259;52.146;12.844;2023-05-14T04:07:00;3.78;;;3.05;;
22186;SDS011;11259;52.146;12.844;2023-05-14T04:09:26;5.55;;;2.65;;
22186;SDS011;11259;52.146;12.844;2023-05-14T04:11:52;2.47;;;2.20;;
22186;SDS011;11259;52.146;12.844;2023-05-14T04:14:18;4.32;;;2.30;;
22186;SDS011;11259;52.146;12.844;2023-05-14T04:16:43;3.70;;;2.50;;
22186;SDS011;11259;52.146;12.844;2023-05-14T04:19:08;3.95;;;2.90;;
22186;SDS011;11259;52.146;12.844;2023-05-14T04:21:34;3.97;;;2.88;;
22186;SDS011;11259;52.146;12.844;2023-05-14T04:23:59;3.65;;;2.20;;
22186;SDS011;11259;52.146;12.844;2023-05-14T04:26:24;3.30;;;2.78;;
22186;SDS011;11259;52.146;12.844;2023-05-14T04:28:51;3.53;;;2.72;;
22186;SDS011;11259;52.146;12.844;2023-05-14T04:31:16;2.97;;;2.33;;
22186;SDS011;11259;52.146;12.844;2023-05-14T04:33:42;3.58;;;3.25;;
22186;SDS011;11259;52.146;12.844;2023-05-14T04:36:07;4.13;;;2.80;;
22186;SDS011;11259;52.146;12.844;2023-05-14T04:38:32;5.80;;;3.20;;
22186;SDS011;11259;52.146;12.844;2023-05-14T04:40:58;3.75;;;2.97;;
22186;SDS011;11259;52.146;12.844;2023-05-14T04:43:23;3.30;;;2.85;;
22186;SDS011;11259;52.146;12.844;2023-05-14T04:45:50;4.18;;;2.38;;
22186;SDS011;11259;52.146;12.844;2023-05-14T04:48:15;4.68;;;3.00;;
22186;SDS011;11259;52.146;12.844;2023-05-14T04:50:41;3.65;;;3.20;;
22186;SDS011;11259;52.146;12.844;2023-05-14T04:53:06;4.90;;;3.00;;
22186;SDS011;11259;52.146;12.844;2023-05-14T04:55:31;5.07;;;3.60;;
22186;SDS011;11259;52.146;12.844;2023-05-14T04:57:57;3.45;;;3.05;;
22186;SDS011;11259;52.146;12.844;2023-05-14T05:00:22;4.53;;;2.85;;
22186;SDS011;11259;52.146;12.844;2023-05-14T05:02:49;3.65;;;3.13;;
22186;SDS011;11259;52.146;12.844;2023-05-14T05:05:14;3.25;;;2.70;;
22186;SDS011;11259;52.146;12.844;2023-05-14T05:07:40;3.38;;;2.85;;
22186;SDS011;11259;52.146;12.844;2023-05-14T05:10:06;4.05;;;3.20;;
22186;SDS011;11259;52.146;12.844;2023-05-14T05:12:32;3.45;;;2.78;;
22186;SDS011;11259;52.146;12.844;2023-05-14T05:14:57;3.08;;;2.78;;
22186;SDS011;11259;52.146;12.844;2023-05-14T05:17:23;3.72;;;2.67;;
22186;SDS011;11259;52.146;12.844;2023-05-14T05:19:50;3.15;;;2.50;;
22186;SDS011;11259;52.146;12.844;2023-05-14T05:22:15;3.00;;;2.47;;
22186;SDS011;11259;52.146;12.844;2023-05-14T05:24:41;3.63;;;2.85;;
22186;SDS011;11259;52.146;12.844;2023-05-14T05:27:06;3.80;;;2.95;;
22186;SDS011;11259;52.146;12.844;2023-05-14T05:29:32;4.93;;;3.47;;
22186;SDS011;11259;52.146;12.844;2023-05-14T05:31:58;3.80;;;3.15;;
22186;SDS011;11259;52.146;12.844;2023-05-14T05:34:23;4.43;;;3.50;;
22186;SDS011;11259;52.146;12.844;2023-05-14T05:36:50;3.90;;;3.50;;
22186;SDS011;11259;52.146;12.844;2023-05-14T05:39:15;3.15;;;2.83;;
22186;SDS011;11259;52.146;12.844;2023-05-14T05:41:41;4.18;;;2.95;;
22186;SDS011;11259;52.146;12.844;2023-05-14T05:44:06;3.80;;;3.25;;
22186;SDS011;11259;52.146;12.844;2023-05-14T05:46:31;3.30;;;2.67;;
22186;SDS011;11259;52.146;12.844;2023-05-14T05:48:57;3.28;;;2.63;;
22186;SDS011;11259;52.146;12.844;2023-05-14T05:51:22;2.90;;;2.60;;
22186;SDS011;11259;52.146;12.844;2023-05-14T05:53:49;3.25;;;2.95;;
22186;SDS011;11259;52.146;12.844;2023-05-14T05:56:14;4.55;;;3.45;;
22186;SDS011;11259;52.146;12.844;2023-05-14T05:58:39;4.13;;;3.40;;
22186;SDS011;11259;52.146;12.844;2023-05-14T06:01:05;6.40;;;3.63;;
22186;SDS011;11259;52.146;12.844;2023-05-14T06:03:30;4.13;;;3.08;;
22186;SDS011;11259;52.146;12.844;2023-05-14T06:05:55;2.90;;;2.65;;
22186;SDS011;11259;52.146;12.844;2023-05-14T06:08:21;3.13;;;2.55;;
22186;SDS011;11259;52.146;12.844;2023-05-14T06:10:48;3.28;;;2.97;;
22186;SDS011;11259;52.146;12.844;2023-05-14T06:13:13;3.03;;;2.67;;
22186;SDS011;11259;52.146;12.844;2023-05-14T06:15:38;3.38;;;3.00;;
22186;SDS011;11259;52.146;12.844;2023-05-14T06:18:04;3.90;;;2.80;;
22186;SDS011;11259;52.146;12.844;2023-05-14T06:20:29;3.80;;;2.85;;
22186;SDS011;11259;52.146;12.844;2023-05-14T06:22:54;3.88;;;3.10;;
22186;SDS011;11259;52.146;12.844;2023-05-14T06:25:20;4.32;;;3.28;;
22186;SDS011;11259;52.146;12.844;2023-05-14T06:27:47;3.58;;;3.15;;
22186;SDS011;11259;52.146;12.844;2023-05-14T06:30:12;3.05;;;2.65;;
22186;SDS011;11259;52.146;12.844;2023-05-14T06:32:38;4.97;;;2.95;;
22186;SDS011;11259;52.146;12.844;2023-05-14T06:35:04;3.10;;;2.65;;
22186;SDS011;11259;52.146;12.844;2023-05-14T06:37:30;3.65;;;2.75;;
22186;SDS011;11259;52.146;12.844;2023-05-14T06:39:55;2.90;;;2.70;;
22186;SDS011;11259;52.146;12.844;2023-05-14T06:42:21;2.40;;;2.20;;
22186;SDS011;11259;52.146;12.844;2023-05-14T06:44:47;3.03;;;2.58;;
22186;SDS011;11259;52.146;12.844;2023-05-14T06:47:13;2.85;;;2.65;;
22186;SDS011;11259;52.146;12.844;2023-05-14T06:49:38;2.47;;;2.28;;
22186;SDS011;11259;52.146;12.844;2023-05-14T06:52:04;5.93;;;2.88;;
22186;SDS011;11259;52.146;12.844;2023-05-14T06:54:30;3.20;;;2.30;;
22186;SDS011;11259;52.146;12.844;2023-05-14T06:56:55;2.95;;;2.60;;
22186;SDS011;11259;52.146;12.844;2023-05-14T06:59:20;3.33;;;2.88;;
22186;SDS011;11259;52.146;12.844;2023-05-14T07:01:47;5.95;;;2.33;;
22186;SDS011;11259;52.146;12.844;2023-05-14T07:04:12;3.50;;;2.60;;
22186;SDS011;11259;52.146;12.844;2023-05-14T07:06:38;2.50;;;2.30;;
22186;SDS011;11259;52.146;12.844;2023-05-14T07:09:03;3.95;;;3.20;;
22186;SDS011;11259;52.146;12.844;2023-05-14T07:11:29;7.70;;;3.63;;
22186;SDS011;11259;52.146;12.844;2023-05-14T07:13:54;2.92;;;2.30;;
22186;SDS011;11259;52.146;12.844;2023-05-14T07:16:19;2.47;;;2.08;;
22186;SDS011;11259;52.146;12.844;2023-05-14T07:18:49;2.13;;;1.92;;
22186;SDS011;11259;52.146;12.844;2023-05-14T07:21:14;3.60;;;2.13;;
22186;SDS011;11259;52.146;12.844;2023-05-14T07:23:40;2.78;;;2.30;;
22186;SDS011;11259;52.146;12.844;2023-05-14T07:26:05;2.80;;;2.47;;
22186;SDS011;11259;52.146;12.844;2023-05-14T07:28:31;2.90;;;2.30;;
22186;SDS011;11259;52.146;12.844;2023-05-14T07:30:57;3.47;;;2.20;;
22186;SDS011;11259;52.146;12.844;2023-05-14T07:33:22;2.13;;;1.95;;
22186;SDS011;11259;52.146;12.844;2023-05-14T07:35:49;2.65;;;2.15;;
22186;SDS011;11259;52.146;12.844;2023-05-14T07:38:14;4.10;;;2.58;;
22186;SDS011;11259;52.146;12.844;2023-05-14T07:40:40;3.67;;;2.50;;
22186;SDS011;11259;52.146;12.844;2023-05-14T07:43:05;2.83;;;2.50;;
22186;SDS011;11259;52.146;12.844;2023-05-14T07:45:31;2.38;;;2.17;;
22186;SDS011;11259;52.146;12.844;2023-05-14T07:47:56;4.05;;;2.28;;
22186;SDS011;11259;52.146;12.844;2023-05-14T07:50:21;1.92;;;1.73;;
22186;SDS011;11259;52.146;12.844;2023-05-14T07:52:48;3.00;;;1.83;;
22186;SDS011;11259;52.146;12.844;2023-05-14T07:55:14;1.70;;;1.50;;
22186;SDS011;11259;52.146;12.844;2023-05-14T07:57:39;2.00;;;1.60;;
22186;SDS011;11259;52.146;12.844;2023-05-14T08:00:05;2.20;;;1.65;;
22186;SDS011;11259;52.146;12.844;2023-05-14T08:02:31;1.88;;;1.70;;
22186;SDS011;11259;52.146;12.844;2023-05-14T08:04:56;2.58;;;1.63;;
22186;SDS011;11259;52.146;12.844;2023-05-14T08:07:21;1.60;;;1.30;;
22186;SDS011;11259;52.146;12.844;2023-05-14T08:09:48;3.55;;;1.50;;
22186;SDS011;11259;52.146;12.844;2023-05-14T08:12:13;1.55;;;1.40;;
22186;SDS011;11259;52.146;12.844;2023-05-14T08:14:39;1.85;;;1.45;;
22186;SDS011;11259;52.146;12.844;2023-05-14T08:17:04;1.70;;;1.38;;
22186;SDS011;11259;52.146;12.844;2023-05-14T08:19:29;1.52;;;1.42;;
22186;SDS011;11259;52.146;12.844;2023-05-14T08:21:55;2.72;;;1.65;;
22186;SDS011;11259;52.146;12.844;2023-05-14T08:24:20;1.60;;;1.50;;
22186;SDS011;11259;52.146;12.844;2023-05-14T08:26:47;1.80;;;1.63;;
22186;SDS011;11259;52.146;12.844;2023-05-14T08:29:12;1.80;;;1.48;;
22186;SDS011;11259;52.146;12.844;2023-05-14T08:31:37;1.58;;;1.38;;
22186;SDS011;11259;52.146;12.844;2023-05-14T08:34:03;1.40;;;1.15;;
22186;SDS011;11259;52.146;12.844;2023-05-14T08:36:28;1.67;;;1.58;;
22186;SDS011;11259;52.146;12.844;2023-05-14T08:38:53;1.40;;;1.30;;
22186;SDS011;11259;52.146;12.844;2023-05-14T08:41:19;1.85;;;1.45;;
22186;SDS011;11259;52.146;12.844;2023-05-14T08:43:48;2.15;;;1.50;;
22186;SDS011;11259;52.146;12.844;2023-05-14T08:46:17;3.67;;;1.60;;
22186;SDS011;11259;52.146;12.844;2023-05-14T08:48:46;1.55;;;1.23;;
22186;SDS011;11259;52.146;12.844;2023-05-14T08:51:12;1.25;;;1.08;;
22186;SDS011;11259;52.146;12.844;2023-05-14T08:53:37;1.48;;;1.38;;
22186;SDS011;11259;52.146;12.844;2023-05-14T08:56:03;1.73;;;1.40;;
22186;SDS011;11259;52.146;12.844;2023-05-14T08:58:29;2.08;;;1.58;;
22186;SDS011;11259;52.146;12.844;2023-05-14T09:00:56;1.40;;;1.30;;
22186;SDS011;11259;52.146;12.844;2023-05-14T09:03:21;1.35;;;1.25;;
22186;SDS011;11259;52.146;12.844;2023-05-14T09:05:46;1.20;;;1.10;;
22186;SDS011;11259;52.146;12.844;2023-05-14T09:08:13;1.40;;;1.20;;
22186;SDS011;11259;52.146;12.844;2023-05-14T09:10:38;2.55;;;1.65;;
22186;SDS011;11259;52.146;12.844;2023-05-14T09:13:04;3.10;;;1.20;;
22186;SDS011;11259;52.146;12.844;2023-05-14T09:15:29;1.67;;;1.10;;
22186;SDS011;11259;52.146;12.844;2023-05-14T09:17:56;2.00;;;1.45;;
22186;SDS011;11259;52.146;12.844;2023-05-14T09:20:21;1.92;;;1.45;;
22186;SDS011;11259;52.146;12.844;2023-05-14T09:22:51;1.77;;;1.30;;
22186;SDS011;11259;52.146;12.844;2023-05-14T09:25:16;1.45;;;1.27;;
22186;SDS011;11259;52.146;12.844;2023-05-14T09:27:42;1.80;;;1.52;;
22186;SDS011;11259;52.146;12.844;2023-05-14T09:30:11;1.77;;;1.63;;
22186;SDS011;11259;52.146;12.844;2023-05-14T09:32:38;1.33;;;1.23;;
22186;SDS011;11259;52.146;12.844;2023-05-14T09:35:10;1.48;;;1.38;;
22186;SDS011;11259;52.146;12.844;2023-05-14T09:37:40;1.60;;;1.33;;
22186;SDS011;11259;52.146;12.844;2023-05-14T09:40:06;1.63;;;1.20;;
22186;SDS011;11259;52.146;12.844;2023-05-14T09:42:32;1.42;;;1.27;;
22186;SDS011;11259;52.146;12.844;2023-05-14T09:44:57;2.72;;;1.70;;
22186;SDS011;11259;52.146;12.844;2023-05-14T09:47:22;1.25;;;1.15;;
22186;SDS011;11259;52.146;12.844;2023-05-14T09:49:48;1.27;;;1.20;;
22186;SDS011;11259;52.146;12.844;2023-05-14T09:52:14;6.55;;;1.77;;
22186;SDS011;11259;52.146;12.844;2023-05-14T09:54:42;2.20;;;1.65;;
22186;SDS011;11259;52.146;12.844;2023-05-14T09:57:08;1.27;;;1.17;;
22186;SDS011;11259;52.146;12.844;2023-05-14T09:59:33;1.63;;;1.50;;
22186;SDS011;11259;52.146;12.844;2023-05-14T10:01:58;1.40;;;1.00;;
22186;SDS011;11259;52.146;12.844;2023-05-14T10:04:24;1.80;;;1.60;;
22186;SDS011;11259;52.146;12.844;2023-05-14T10:06:50;1.98;;;1.73;;
22186;SDS011;11259;52.146;12.844;2023-05-14T10:09:17;2.35;;;1.40;;
22186;SDS011;11259;52.146;12.844;2023-05-14T10:11:45;1.63;;;1.35;;
22186;SDS011;11259;52.146;12.844;2023-05-14T10:14:13;2.00;;;1.17;;
22186;SDS011;11259;52.146;12.844;2023-05-14T10:16:46;7.95;;;1.40;;
22186;SDS011;11259;52.146;12.844;2023-05-14T10:19:12;1.05;;;1.02;;
22186;SDS011;11259;52.146;12.844;2023-05-14T10:21:40;1.80;;;1.30;;
22186;SDS011;11259;52.146;12.844;2023-05-14T10:24:06;2.08;;;1.60;;
22186;SDS011;11259;52.146;12.844;2023-05-14T10:26:34;1.92;;;1.55;;
22186;SDS011;11259;52.146;12.844;2023-05-14T10:29:00;1.65;;;1.38;;
22186;SDS011;11259;52.146;12.844;2023-05-14T10:34:22;1.27;;;1.17;;
22186;SDS011;11259;52.146;12.844;2023-05-14T10:36:57;1.38;;;1.27;;
22186;SDS011;11259;52.146;12.844;2023-05-14T10:39:25;1.52;;;1.42;;
22186;SDS011;11259;52.146;12.844;2023-05-14T10:42:05;1.48;;;1.30;;
22186;SDS011;11259;52.146;12.844;2023-05-14T10:44:32;1.48;;;1.38;;
22186;SDS011;11259;52.146;12.844;2023-05-14T10:46:59;1.70;;;1.60;;
22186;SDS011;11259;52.146;12.844;2023-05-14T10:49:25;1.20;;;1.10;;
22186;SDS011;11259;52.146;12.844;2023-05-14T10:51:51;2.88;;;1.77;;
22186;SDS011;11259;52.146;12.844;2023-05-14T10:54:17;1.38;;;1.20;;
22186;SDS011;11259;52.146;12.844;2023-05-14T10:56:42;2.55;;;1.35;;
22186;SDS011;11259;52.146;12.844;2023-05-14T10:59:11;1.50;;;1.40;;
22186;SDS011;11259;52.146;12.844;2023-05-14T11:01:38;7.13;;;1.70;;
22186;SDS011;11259;52.146;12.844;2023-05-14T11:04:04;3.03;;;1.30;;
22186;SDS011;11259;52.146;12.844;2023-05-14T11:06:29;1.70;;;1.10;;
22186;SDS011;11259;52.146;12.844;2023-05-14T11:08:54;2.30;;;1.30;;
22186;SDS011;11259;52.146;12.844;2023-05-14T11:11:20;1.25;;;1.15;;
22186;SDS011;11259;52.146;12.844;2023-05-14T11:13:45;2.20;;;1.90;;
22186;SDS011;11259;52.146;12.844;2023-05-14T11:16:13;2.10;;;1.42;;
22186;SDS011;11259;52.146;12.844;2023-05-14T11:18:38;1.50;;;1.23;;
22186;SDS011;11259;52.146;12.844;2023-05-14T11:21:04;1.75;;;1.40;;
22186;SDS011;11259;52.146;12.844;2023-05-14T11:23:29;1.90;;;1.45;;
22186;SDS011;11259;52.146;12.844;2023-05-14T11:25:55;1.42;;;1.33;;
22186;SDS011;11259;52.146;12.844;2023-05-14T11:28:20;1.38;;;1.27;;
22186;SDS011;11259;52.146;12.844;2023-05-14T11:30:46;1.75;;;1.50;;
22186;SDS011;11259;52.146;12.844;2023-05-14T11:33:13;1.80;;;1.45;;
22186;SDS011;11259;52.146;12.844;2023-05-14T11:35:39;1.75;;;1.55;;
22186;SDS011;11259;52.146;12.844;2023-05-14T11:38:04;1.35;;;1.25;;
22186;SDS011;11259;52.146;12.844;2023-05-14T11:40:30;1.27;;;1.17;;
22186;SDS011;11259;52.146;12.844;2023-05-14T11:42:55;1.58;;;1.23;;
22186;SDS011;11259;52.146;12.844;2023-05-14T11:45:24;1.05;;;0.98;;
22186;SDS011;11259;52.146;12.844;2023-05-14T11:47:49;1.85;;;1.60;;
22186;SDS011;11259;52.146;12.844;2023-05-14T11:50:17;1.25;;;1.15;;
22186;SDS011;11259;52.146;12.844;2023-05-14T11:52:43;1.50;;;1.30;;
22186;SDS011;11259;52.146;12.844;2023-05-14T11:55:09;1.30;;;1.05;;
22186;SDS011;11259;52.146;12.844;2023-05-14T11:57:35;1.17;;;1.08;;
22186;SDS011;11259;52.146;12.844;2023-05-14T12:00:00;1.42;;;1.00;;
22186;SDS011;11259;52.146;12.844;2023-05-14T12:02:26;1.52;;;1.30;;
22186;SDS011;11259;52.146;12.844;2023-05-14T12:04:51;1.73;;;1.42;;
22186;SDS011;11259;52.146;12.844;2023-05-14T12:07:18;1.20;;;1.10;;
22186;SDS011;11259;52.146;12.844;2023-05-14T12:09:44;2.17;;;1.42;;
22186;SDS011;11259;52.146;12.844;2023-05-14T12:12:10;1.73;;;1.40;;
22186;SDS011;11259;52.146;12.844;2023-05-14T12:14:37;1.52;;;1.30;;
22186;SDS011;11259;52.146;12.844;2023-05-14T12:17:03;2.03;;;1.35;;
22186;SDS011;11259;52.146;12.844;2023-05-14T12:19:36;1.27;;;1.17;;
22186;SDS011;11259;52.146;12.844;2023-05-14T12:22:03;1.23;;;1.10;;
22186;SDS011;11259;52.146;12.844;2023-05-14T12:24:30;1.45;;;1.30;;
22186;SDS011;11259;52.146;12.844;2023-05-14T12:26:56;1.52;;;1.25;;
22186;SDS011;11259;52.146;12.844;2023-05-14T12:29:25;1.75;;;1.20;;
22186;SDS011;11259;52.146;12.844;2023-05-14T12:31:50;1.98;;;1.42;;
22186;SDS011;11259;52.146;12.844;2023-05-14T12:34:15;1.30;;;1.20;;
22186;SDS011;11259;52.146;12.844;2023-05-14T12:36:41;1.27;;;1.17;;
22186;SDS011;11259;52.146;12.844;2023-05-14T12:39:06;1.77;;;1.20;;
22186;SDS011;11259;52.146;12.844;2023-05-14T12:41:33;3.22;;;1.60;;
22186;SDS011;11259;52.146;12.844;2023-05-14T12:43:59;1.63;;;1.10;;
22186;SDS011;11259;52.146;12.844;2023-05-14T12:46:25;1.33;;;1.23;;
22186;SDS011;11259;52.146;12.844;2023-05-14T12:48:51;1.42;;;1.33;;
22186;SDS011;11259;52.146;12.844;2023-05-14T12:51:16;1.42;;;1.33;;
22186;SDS011;11259;52.146;12.844;2023-05-14T12:53:42;1.20;;;1.10;;
22186;SDS011;11259;52.146;12.844;2023-05-14T12:56:07;2.08;;;1.50;;
22186;SDS011;11259;52.146;12.844;2023-05-14T12:58:34;1.23;;;1.05;;
22186;SDS011;11259;52.146;12.844;2023-05-14T13:00:59;2.08;;;1.23;;
22186;SDS011;11259;52.146;12.844;2023-05-14T13:03:24;2.22;;;1.33;;
22186;SDS011;11259;52.146;12.844;2023-05-14T13:05:50;1.35;;;1.25;;
22186;SDS011;11259;52.146;12.844;2023-05-14T13:08:15;1.20;;;1.10;;
22186;SDS011;11259;52.146;12.844;2023-05-14T13:10:40;1.00;;;1.00;;
22186;SDS011;11259;52.146;12.844;2023-05-14T13:13:06;2.28;;;1.00;;
22186;SDS011;11259;52.146;12.844;2023-05-14T13:15:32;0.88;;;0.80;;
22186;SDS011;11259;52.146;12.844;2023-05-14T13:17:59;1.52;;;1.17;;
22186;SDS011;11259;52.146;12.844;2023-05-14T13:20:24;1.60;;;1.33;;
22186;SDS011;11259;52.146;12.844;2023-05-14T13:22:50;1.05;;;1.05;;
22186;SDS011;11259;52.146;12.844;2023-05-14T13:25:15;1.38;;;1.17;;
22186;SDS011;11259;52.146;12.844;2023-05-14T13:27:40;1.20;;;1.10;;
22186;SDS011;11259;52.146;12.844;2023-05-14T13:30:06;1.75;;;1.65;;
22186;SDS011;11259;52.146;12.844;2023-05-14T13:32:33;1.38;;;1.25;;
22186;SDS011;11259;52.146;12.844;2023-05-14T13:34:59;1.13;;;1.02;;
22186;SDS011;11259;52.146;12.844;2023-05-14T13:37:25;2.80;;;0.95;;
22186;SDS011;11259;52.146;12.844;2023-05-14T13:39:50;1.75;;;1.17;;
22186;SDS011;11259;52.146;12.844;2023-05-14T13:42:15;1.13;;;1.10;;
22186;SDS011;11259;52.146;12.844;2023-05-14T13:44:41;1.23;;;0.90;;
22186;SDS011;11259;52.146;12.844;2023-05-14T13:47:06;0.90;;;0.90;;
22186;SDS011;11259;52.146;12.844;2023-05-14T13:49:33;1.67;;;1.40;;
22186;SDS011;11259;52.146;12.844;2023-05-14T13:51:58;2.25;;;1.08;;
22186;SDS011;11259;52.146;12.844;2023-05-14T13:54:24;0.90;;;0.88;;
22186;SDS011;11259;52.146;12.844;2023-05-14T13:56:49;1.13;;;0.90;;
22186;SDS011;11259;52.146;12.844;2023-05-14T13:59:15;0.70;;;0.70;;
22186;SDS011;11259;52.146;12.844;2023-05-14T14:01:40;0.80;;;0.70;;
22186;SDS011;11259;52.146;12.844;2023-05-14T14:04:05;0.80;;;0.80;;
22186;SDS011;11259;52.146;12.844;2023-05-14T14:06:32;0.75;;;0.75;;
22186;SDS011;11259;52.146;12.844;2023-05-14T14:08:58;1.20;;;1.10;;
22186;SDS011;11259;52.146;12.844;2023-05-14T14:11:23;1.00;;;0.90;;
22186;SDS011;11259;52.146;12.844;2023-05-14T14:13:49;0.90;;;0.77;;
22186;SDS011;11259;52.146;12.844;2023-05-14T14:16:14;1.00;;;0.90;;
22186;SDS011;11259;52.146;12.844;2023-05-14T14:18:40;0.93;;;0.90;;
22186;SDS011;11259;52.146;12.844;2023-05-14T14:21:05;0.88;;;0.88;;
22186;SDS011;11259;52.146;12.844;2023-05-14T14:23:32;2.03;;;1.20;;
22186;SDS011;11259;52.146;12.844;2023-05-14T14:25:57;0.80;;;0.80;;
22186;SDS011;11259;52.146;12.844;2023-05-14T14:28:23;0.82;;;0.82;;